Time;durP1;ratioP1;P1;durP2;ratioP2;P2;SDS_P1;SDS_P2;PMS_P1;PMS_P2;Temp;Humidity;BMP_temperature;BMP_pressure;BME280_temperature;BME280_humidity;BME280_pressure;Samples;Min_cycle;Max_cycle;Signal;HPM_P1;HPM_P2
2022/04/03 00:00:23;;;;;;;0.00;0.00;;;;;;;12.15;58.99;97911.13;6305139;22;20330;-75
2022/04/03 00:02:49;;;;;;;0.08;0.08;;;;;;;12.17;58.96;97913.53;6305355;22;20092;-75
2022/04/03 00:05:14;;;;;;;0.00;0.00;;;;;;;12.13;59.59;97907.19;6304983;22;20010;-75
2022/04/03 00:07:40;;;;;;;0.00;0.00;;;;;;;12.13;59.19;97902.63;6305023;22;20003;-75
2022/04/03 00:10:06;;;;;;;0.00;0.00;;;;;;;12.14;59.54;97903.41;6305385;22;20038;-75
2022/04/03 00:12:32;;;;;;;0.00;0.00;;;;;;;12.11;59.51;97901.38;6304487;22;20459;-74
2022/04/03 00:14:57;;;;;;;0.00;0.00;;;;;;;12.07;59.04;97914.63;6305321;22;20009;-75
2022/04/03 00:17:23;;;;;;;0.00;0.00;;;;;;;12.07;59.49;97921.84;6305069;22;20341;-75
2022/04/03 00:19:48;;;;;;;0.00;0.00;;;;;;;12.04;59.85;97919.81;6305159;22;20004;-75
2022/04/03 00:22:14;;;;;;;0.00;0.00;;;;;;;12.05;59.50;97919.50;6305273;22;20003;-75
2022/04/03 00:24:39;;;;;;;0.00;0.00;;;;;;;12.07;59.74;97917.28;6304485;22;20030;-75
2022/04/03 00:27:05;;;;;;;0.00;0.00;;;;;;;12.05;59.42;97905.28;6305299;22;20417;-75
2022/04/03 00:29:31;;;;;;;0.00;0.00;;;;;;;12.07;59.48;97908.44;6304738;22;20425;-75
2022/04/03 00:31:57;;;;;;;0.00;0.00;;;;;;;12.06;59.88;97913.03;6305176;22;20007;-75
2022/04/03 00:34:24;;;;;;;0.00;0.00;;;;;;;12.11;59.50;97918.22;6304585;22;20000;-75
2022/04/03 00:36:49;;;;;;;0.00;0.00;;;;;;;12.05;59.96;97914.13;6304778;22;20448;-75
2022/04/03 00:39:15;;;;;;;0.00;0.00;;;;;;;12.11;59.84;97922.81;6305030;22;20034;-75
2022/04/03 00:41:40;;;;;;;0.00;0.00;;;;;;;12.14;59.75;97925.63;6304836;22;20030;-75
2022/04/03 00:44:07;;;;;;;0.00;0.00;;;;;;;12.15;59.89;97926.44;6305034;22;20007;-75
2022/04/03 00:46:34;;;;;;;0.00;0.00;;;;;;;12.16;59.67;97923.44;6304763;22;20508;-75
2022/04/03 00:49:00;;;;;;;0.00;0.00;;;;;;;12.14;59.73;97919.50;6305108;22;20029;-74
2022/04/03 00:51:29;;;;;;;0.00;0.00;;;;;;;12.21;59.29;97922.50;6304752;22;20003;-75
2022/04/03 00:53:56;;;;;;;0.00;0.00;;;;;;;12.22;59.72;97924.06;6305068;22;20065;-74
2022/04/03 00:56:21;;;;;;;0.00;0.00;;;;;;;12.24;59.12;97939.84;6305018;22;20006;-74
2022/04/03 00:58:48;;;;;;;0.00;0.00;;;;;;;12.20;59.57;97936.22;6304823;22;19999;-74
2022/04/03 01:01:14;;;;;;;0.00;0.00;;;;;;;12.23;59.25;97938.25;6304605;22;19999;-74
2022/04/03 01:03:40;;;;;;;0.00;0.00;;;;;;;12.20;58.87;97934.31;6304646;22;20010;-75
2022/04/03 01:06:06;;;;;;;0.00;0.00;;;;;;;12.16;59.16;97942.19;6304650;22;20014;-75
2022/04/03 01:08:32;;;;;;;0.00;0.00;;;;;;;12.10;58.96;97930.06;6304633;22;20453;-75
2022/04/03 01:10:57;;;;;;;0.10;0.10;;;;;;;12.15;58.52;97934.47;6304909;22;20057;-75
2022/04/03 01:13:25;;;;;;;0.00;0.00;;;;;;;12.12;58.79;97935.09;6304229;22;20007;-75
2022/04/03 01:15:52;;;;;;;0.00;0.00;;;;;;;12.08;58.90;97931.47;6304839;22;19999;-75
2022/04/03 01:18:18;;;;;;;0.00;0.00;;;;;;;12.10;58.94;97929.28;6304778;22;20003;-75
2022/04/03 01:20:43;;;;;;;0.00;0.00;;;;;;;12.13;59.15;97934.00;6304641;22;20529;-75
2022/04/03 01:23:08;;;;;;;0.00;0.00;;;;;;;12.12;59.62;97941.25;6304881;22;20033;-74
2022/04/03 01:25:34;;;;;;;0.00;0.00;;;;;;;12.10;59.80;97946.13;6304101;22;20017;-75
2022/04/03 01:27:59;;;;;;;0.00;0.00;;;;;;;12.11;59.77;97938.91;6304931;22;20059;-75
2022/04/03 01:30:25;;;;;;;0.00;0.00;;;;;;;12.11;59.23;97930.84;6304244;22;19999;-74
2022/04/03 01:32:50;;;;;;;0.00;0.00;;;;;;;12.17;59.32;97921.56;6304450;22;20003;-75
2022/04/03 01:35:17;;;;;;;0.00;0.00;;;;;;;12.14;59.74;97925.63;6304831;22;20092;-75
2022/04/03 01:37:43;;;;;;;0.00;0.00;;;;;;;12.12;59.11;97933.22;6304511;22;20004;-75
2022/04/03 01:40:09;;;;;;;0.00;0.00;;;;;;;12.10;60.01;97924.69;6304668;22;19999;-75
2022/04/03 01:42:34;;;;;;;0.00;0.00;;;;;;;12.05;60.06;97907.97;6306313;22;20000;-75
2022/04/03 01:44:59;;;;;;;0.00;0.00;;;;;;;12.00;60.65;97898.97;6279463;22;20491;-75
2022/04/03 01:47:25;;;;;;;0.00;0.00;;;;;;;11.87;60.45;97889.16;6306636;22;20506;-75
2022/04/03 01:49:51;;;;;;;0.45;0.35;;;;;;;11.82;60.12;97871.34;6306689;22;20003;-75
2022/04/03 01:52:16;;;;;;;0.00;0.00;;;;;;;11.73;60.39;97877.78;6306726;22;20033;-75
2022/04/03 01:54:42;;;;;;;0.00;0.00;;;;;;;11.69;60.16;97862.34;6306394;22;20353;-75
2022/04/03 01:57:07;;;;;;;0.00;0.00;;;;;;;11.68;60.00;97860.78;6279236;22;19999;-75
2022/04/03 01:59:33;;;;;;;0.00;0.00;;;;;;;11.66;60.18;97851.47;6306213;22;20074;-75
2022/04/03 02:01:58;;;;;;;0.00;0.00;;;;;;;11.65;60.66;97847.22;6279305;22;20064;-75
2022/04/03 02:04:24;;;;;;;0.00;0.00;;;;;;;11.63;60.21;97850.22;6306583;22;20505;-75
2022/04/03 02:06:51;;;;;;;0.00;0.00;;;;;;;11.66;60.36;97848.81;6306319;22;19999;-75
2022/04/03 02:09:16;;;;;;;0.00;0.00;;;;;;;11.69;60.91;97848.97;6306568;22;20011;-75
2022/04/03 02:11:42;;;;;;;0.00;0.00;;;;;;;11.67;61.08;97851.16;6278673;22;20019;-75
2022/04/03 02:14:07;;;;;;;0.00;0.00;;;;;;;11.81;60.57;97861.72;6306148;22;20007;-75
2022/04/03 02:16:33;;;;;;;0.00;0.00;;;;;;;11.80;60.96;97854.00;6306257;22;19999;-75
2022/04/03 02:18:59;;;;;;;0.00;0.00;;;;;;;11.78;60.80;97848.16;6306398;22;20420;-75
2022/04/03 02:21:24;;;;;;;0.00;0.00;;;;;;;11.76;60.80;97837.00;6279108;22;20065;-75
2022/04/03 02:23:51;;;;;;;0.05;0.05;;;;;;;11.78;61.19;97845.50;6306066;22;20004;-74
2022/04/03 02:26:17;;;;;;;0.00;0.00;;;;;;;11.64;61.68;97859.03;6306475;22;20026;-74
2022/04/03 02:28:43;;;;;;;0.00;0.00;;;;;;;11.58;61.91;97858.38;6306104;22;20049;-75
2022/04/03 02:31:09;;;;;;;0.00;0.00;;;;;;;11.58;62.78;97865.63;6306335;22;20428;-74
2022/04/03 02:33:35;;;;;;;0.00;0.00;;;;;;;11.47;62.46;97852.50;6306069;22;20070;-74
2022/04/03 02:36:00;;;;;;;0.00;0.00;;;;;;;11.50;62.43;97861.84;6306653;22;20060;-74
2022/04/03 02:38:26;;;;;;;0.00;0.00;;;;;;;11.58;61.91;97853.03;6306209;22;20200;-74
2022/04/03 02:40:51;;;;;;;0.00;0.00;;;;;;;11.62;61.04;97856.66;6306020;22;20060;-74
2022/04/03 02:43:16;;;;;;;0.00;0.00;;;;;;;11.37;61.92;97856.25;6306240;22;20010;-74
2022/04/03 02:45:42;;;;;;;0.00;0.00;;;;;;;11.30;61.96;97852.47;6305946;22;20007;-74
2022/04/03 02:48:08;;;;;;;0.00;0.00;;;;;;;11.25;61.96;97869.44;6306140;22;20010;-74
2022/04/03 02:50:34;;;;;;;0.00;0.00;;;;;;;11.20;62.69;97878.44;6278489;22;20030;-74
2022/04/03 02:52:59;;;;;;;0.00;0.00;;;;;;;11.16;62.13;97885.47;6305864;22;20037;-74
2022/04/03 02:55:25;;;;;;;0.00;0.00;;;;;;;11.04;62.46;97893.28;6306495;22;20440;-74
2022/04/03 02:57:52;;;;;;;0.00;0.00;;;;;;;11.00;62.48;97885.09;6305733;22;20003;-73
2022/04/03 03:00:19;;;;;;;0.00;0.00;;;;;;;10.86;62.35;97884.38;6306003;22;20037;-74
2022/04/03 03:02:47;;;;;;;0.00;0.00;;;;;;;10.83;63.02;97885.00;6305761;22;20003;-74
2022/04/03 03:05:13;;;;;;;0.00;0.00;;;;;;;10.83;62.70;97891.13;6306034;22;20060;-74
2022/04/03 03:07:41;;;;;;;0.00;0.00;;;;;;;10.84;62.82;97894.59;6305775;22;20007;-74
2022/04/03 03:10:09;;;;;;;0.00;0.00;;;;;;;10.79;63.01;97894.72;6306006;22;20027;-74
2022/04/03 03:12:35;;;;;;;0.00;0.00;;;;;;;10.77;62.93;97896.94;6305647;22;20062;-74
2022/04/03 03:15:01;;;;;;;0.00;0.00;;;;;;;10.66;63.60;97893.72;6305923;22;20003;-74
2022/04/03 03:17:27;;;;;;;0.00;0.00;;;;;;;10.63;63.37;97888.97;6305924;22;20049;-74
2022/04/03 03:19:52;;;;;;;0.10;0.10;;;;;;;10.60;63.17;97889.59;6305437;22;20061;-74
2022/04/03 03:22:19;;;;;;;0.00;0.00;;;;;;;10.59;64.19;97894.13;6305750;22;20004;-74
2022/04/03 03:24:44;;;;;;;0.00;0.00;;;;;;;10.60;64.12;97892.25;6304805;22;20019;-74
2022/04/03 03:27:10;;;;;;;0.00;0.00;;;;;;;10.63;64.32;97900.47;6305814;22;20007;-74
2022/04/03 03:29:36;;;;;;;0.00;0.00;;;;;;;10.53;64.18;97885.44;6305481;22;20344;-74
2022/04/03 03:32:02;;;;;;;0.00;0.00;;;;;;;10.46;64.53;97885.09;6305808;22;20049;-74
2022/04/03 03:34:27;;;;;;;0.00;0.00;;;;;;;10.28;64.14;97894.00;6305716;22;20395;-74
2022/04/03 03:36:52;;;;;;;0.00;0.00;;;;;;;10.26;64.45;97891.66;6305420;22;20026;-74
2022/04/03 03:39:18;;;;;;;0.00;0.00;;;;;;;10.19;64.90;97888.59;6305586;22;20037;-74
2022/04/03 03:41:44;;;;;;;0.00;0.00;;;;;;;10.07;65.60;97886.44;6304966;22;19995;-74
2022/04/03 03:44:12;;;;;;;0.00;0.00;;;;;;;10.05;65.93;97883.31;6305591;22;20010;-75
2022/04/03 03:46:39;;;;;;;0.00;0.00;;;;;;;9.95;66.49;97870.97;6305116;22;20007;-74
2022/04/03 03:49:06;;;;;;;0.00;0.00;;;;;;;10.00;66.46;97888.75;6305601;22;20003;-74
2022/04/03 03:51:36;;;;;;;0.00;0.00;;;;;;;10.00;66.38;97892.22;6305535;22;20007;-74
2022/04/03 03:54:02;;;;;;;0.00;0.00;;;;;;;10.11;66.69;97887.44;6305525;22;20005;-74
2022/04/03 03:56:28;;;;;;;0.00;0.00;;;;;;;10.13;66.51;97879.13;6278124;22;20391;-75
2022/04/03 03:58:54;;;;;;;0.00;0.00;;;;;;;10.13;66.22;97879.13;6277736;22;20007;-74
2022/04/03 04:01:21;;;;;;;0.00;0.00;;;;;;;10.21;66.17;97889.88;6305471;22;20007;-75
2022/04/03 04:03:46;;;;;;;0.00;0.00;;;;;;;10.24;66.29;97897.28;6304781;22;20074;-75
2022/04/03 04:06:12;;;;;;;0.00;0.00;;;;;;;10.28;66.00;97896.69;6305404;22;20053;-74
2022/04/03 04:08:38;;;;;;;0.00;0.00;;;;;;;10.28;65.98;97886.00;6305116;22;20026;-75
2022/04/03 04:11:03;;;;;;;0.00;0.00;;;;;;;10.35;65.75;97891.72;6305396;22;20010;-75
2022/04/03 04:13:29;;;;;;;0.00;0.00;;;;;;;10.41;65.81;97890.53;6305213;22;20007;-75
2022/04/03 04:15:54;;;;;;;0.00;0.00;;;;;;;10.41;65.81;97888.66;6305063;22;20003;-75
2022/04/03 04:18:20;;;;;;;0.00;0.00;;;;;;;10.45;66.01;97904.06;6305212;22;20003;-75
2022/04/03 04:20:46;;;;;;;0.00;0.00;;;;;;;10.52;65.60;97897.22;6305009;22;20425;-75
2022/04/03 04:23:11;;;;;;;0.00;0.00;;;;;;;10.53;65.40;97898.00;6305268;22;20015;-75
2022/04/03 04:25:37;;;;;;;0.00;0.00;;;;;;;10.55;64.91;97898.50;6304815;22;20025;-75
2022/04/03 04:28:02;;;;;;;0.00;0.00;;;;;;;10.57;65.17;97893.66;6305250;22;20429;-75
2022/04/03 04:30:28;;;;;;;0.00;0.00;;;;;;;10.60;64.52;97894.94;6305177;22;20003;-75
2022/04/03 04:32:53;;;;;;;0.00;0.00;;;;;;;10.48;64.90;97896.25;6304888;22;20026;-75
2022/04/03 04:35:19;;;;;;;0.00;0.00;;;;;;;10.38;64.65;97904.50;6277480;22;20086;-74
2022/04/03 04:37:45;;;;;;;0.00;0.00;;;;;;;10.33;64.60;97907.28;6304878;22;20023;-74
2022/04/03 04:40:13;;;;;;;0.00;0.00;;;;;;;10.39;65.35;97925.56;6305061;22;20007;-74
2022/04/03 04:42:38;;;;;;;0.00;0.00;;;;;;;10.43;64.90;97933.00;6304402;22;20433;-74
2022/04/03 04:45:06;;;;;;;0.00;0.00;;;;;;;10.38;65.41;97926.66;6304609;22;20013;-74
2022/04/03 04:47:38;;;;;;;0.00;0.00;;;;;;;10.53;65.67;97938.09;6304853;22;20003;-74
2022/04/03 04:50:08;;;;;;;0.00;0.00;;;;;;;10.59;65.55;97936.91;6304891;22;20010;-74
2022/04/03 04:52:35;;;;;;;0.00;0.00;;;;;;;10.66;65.74;97934.59;6304646;22;20404;-73
2022/04/03 04:55:02;;;;;;;0.00;0.00;;;;;;;10.68;65.95;97936.94;6304595;22;20082;-74
2022/04/03 04:57:27;;;;;;;0.00;0.00;;;;;;;10.73;65.86;97928.84;6304518;22;20666;-74
2022/04/03 04:59:53;;;;;;;0.10;0.10;;;;;;;10.76;66.47;97924.75;6304678;22;20033;-74
2022/04/03 05:02:18;;;;;;;0.00;0.00;;;;;;;10.76;66.56;97932.78;6277542;22;20133;-74
2022/04/03 05:04:43;;;;;;;0.00;0.00;;;;;;;10.77;65.83;97932.47;6304606;22;20433;-74
2022/04/03 05:07:11;;;;;;;0.00;0.00;;;;;;;10.75;65.52;97936.53;6304917;22;20460;-73
2022/04/03 05:09:36;;;;;;;0.05;0.05;;;;;;;10.72;64.89;97938.72;6304917;22;20067;-74
2022/04/03 05:12:02;;;;;;;0.00;0.00;;;;;;;10.70;65.10;97951.59;6304639;22;20042;-73
2022/04/03 05:14:28;;;;;;;0.00;0.00;;;;;;;10.67;64.15;97941.53;6304799;22;19999;-74
2022/04/03 05:16:53;;;;;;;0.00;0.00;;;;;;;10.68;64.54;97950.31;6306784;22;19999;-73
2022/04/03 05:19:24;;;;;;;0.00;0.00;;;;;;;10.63;64.47;97956.59;6306991;22;20345;-74
2022/04/03 05:21:50;;;;;;;0.00;0.00;;;;;;;10.61;64.60;97963.31;6306667;22;20003;-74
2022/04/03 05:24:16;;;;;;;0.00;0.00;;;;;;;10.60;64.26;97967.88;6306667;22;20003;-76
2022/04/03 05:26:42;;;;;;;0.00;0.00;;;;;;;10.61;64.72;97976.69;6306380;22;20003;-73
2022/04/03 05:29:07;;;;;;;0.00;0.00;;;;;;;10.59;64.70;97974.31;6306561;22;20005;-75
2022/04/03 05:31:33;;;;;;;0.00;0.00;;;;;;;10.62;64.78;97978.28;6306973;22;20006;-76
2022/04/03 05:33:58;;;;;;;0.00;0.00;;;;;;;10.61;64.76;97980.16;6306198;22;20014;-75
2022/04/03 05:36:24;;;;;;;0.00;0.00;;;;;;;10.55;64.31;97971.47;6306531;22;20007;-75
2022/04/03 05:38:50;;;;;;;0.00;0.00;;;;;;;10.62;64.13;97962.22;6306524;22;20498;-75
2022/04/03 05:41:15;;;;;;;0.00;0.00;;;;;;;10.63;64.27;97964.63;6306815;22;20069;-75
2022/04/03 05:43:41;;;;;;;0.00;0.00;;;;;;;10.65;64.39;97972.34;6306410;22;19999;-74
2022/04/03 05:46:07;;;;;;;0.00;0.00;;;;;;;10.66;64.52;97985.41;6306748;22;20082;-76
2022/04/03 05:48:33;;;;;;;0.00;0.00;;;;;;;10.68;64.05;97982.41;6306739;22;20037;-74
2022/04/03 05:50:58;;;;;;;0.00;0.00;;;;;;;10.66;64.19;98006.78;6306541;22;20007;-75
2022/04/03 05:53:24;;;;;;;0.00;0.00;;;;;;;10.64;64.67;98008.19;6306703;22;20007;-74
2022/04/03 05:55:49;;;;;;;0.00;0.00;;;;;;;10.75;64.81;98000.72;6306001;22;20375;-74
2022/04/03 05:58:14;;;;;;;0.03;0.03;;;;;;;10.73;64.69;97998.38;6305933;22;19999;-74
2022/04/03 06:00:40;;;;;;;0.00;0.00;;;;;;;10.76;65.34;97994.28;6305521;22;20031;-73
2022/04/03 06:03:06;;;;;;;0.00;0.00;;;;;;;10.69;64.99;98006.19;6305721;22;20332;-74
2022/04/03 06:05:34;;;;;;;0.00;0.00;;;;;;;10.64;66.04;98003.59;6278211;22;20471;-74
2022/04/03 06:08:00;;;;;;;0.00;0.00;;;;;;;10.63;65.81;98003.91;6305484;22;20021;-74
2022/04/03 06:10:26;;;;;;;0.00;0.00;;;;;;;10.61;65.54;97998.88;6305729;22;20007;-73
2022/04/03 06:13:00;;;;;;;0.00;0.00;;;;;;;10.69;65.60;98000.03;6305295;22;20007;-73
2022/04/03 06:15:28;;;;;;;0.00;0.00;;;;;;;10.71;65.47;97997.88;6305682;22;20007;-74
2022/04/03 06:17:54;;;;;;;0.08;0.08;;;;;;;10.83;66.16;98010.72;6305362;22;20060;-73
2022/04/03 06:20:21;;;;;;;0.00;0.00;;;;;;;10.92;65.81;98010.75;6305674;22;20007;-74
2022/04/03 06:22:47;;;;;;;0.00;0.00;;;;;;;11.02;66.05;98018.53;6305589;22;20003;-74
2022/04/03 06:25:12;;;;;;;0.00;0.00;;;;;;;11.18;66.26;98027.78;6305531;22;20022;-73
2022/04/03 06:27:38;;;;;;;0.00;0.00;;;;;;;11.31;65.95;98022.69;6305083;22;20348;-74
2022/04/03 06:30:04;;;;;;;0.00;0.00;;;;;;;11.50;65.77;98017.91;6277752;22;20008;-73
2022/04/03 06:32:30;;;;;;;0.38;0.38;;;;;;;11.69;64.91;98035.63;6277826;22;20003;-74
2022/04/03 06:34:56;;;;;;;0.00;0.00;;;;;;;11.91;64.38;98042.03;6305091;22;20075;-74
2022/04/03 06:37:22;;;;;;;0.00;0.00;;;;;;;12.06;61.56;98047.03;6305493;22;20003;-74
2022/04/03 06:39:47;;;;;;;0.00;0.00;;;;;;;12.21;59.28;98050.38;6305129;22;20007;-74
2022/04/03 06:42:13;;;;;;;0.00;0.00;;;;;;;12.32;58.20;98060.47;6305318;22;20053;-74
2022/04/03 06:44:39;;;;;;;0.00;0.00;;;;;;;12.41;56.45;98059.72;6305398;22;20003;-74
2022/04/03 06:47:05;;;;;;;0.00;0.00;;;;;;;12.51;56.57;98058.63;6305083;22;20386;-74
2022/04/03 06:49:32;;;;;;;0.00;0.00;;;;;;;12.60;56.43;98062.13;6305413;22;20003;-75
2022/04/03 06:51:57;;;;;;;0.00;0.00;;;;;;;12.75;56.21;98064.34;6304735;22;20082;-75
2022/04/03 06:54:23;;;;;;;0.10;0.10;;;;;;;12.89;56.37;98072.25;6305367;22;20011;-75
2022/04/03 06:56:48;;;;;;;0.00;0.00;;;;;;;13.09;54.78;98065.47;6304977;22;20014;-75
2022/04/03 06:59:14;;;;;;;0.00;0.00;;;;;;;13.32;53.73;98064.50;6278395;22;20082;-75
2022/04/03 07:01:39;;;;;;;0.10;0.10;;;;;;;13.50;51.42;98063.41;6305579;22;19999;-75
2022/04/03 07:04:05;;;;;;;0.10;0.10;;;;;;;13.69;49.00;98068.41;6306085;22;20006;-75
2022/04/03 07:06:30;;;;;;;0.00;0.00;;;;;;;13.84;48.47;98069.81;6305536;22;20003;-75
2022/04/03 07:08:56;;;;;;;0.00;0.00;;;;;;;14.00;46.83;98066.56;6305401;22;20030;-75
2022/04/03 07:11:21;;;;;;;0.00;0.00;;;;;;;14.13;46.50;98084.38;6305902;22;20025;-75
2022/04/03 07:13:48;;;;;;;0.10;0.10;;;;;;;14.22;45.21;98060.94;6305484;22;20007;-76
2022/04/03 07:16:14;;;;;;;0.10;0.10;;;;;;;14.35;45.20;98091.41;6305158;22;20010;-74
2022/04/03 07:18:40;;;;;;;0.28;0.25;;;;;;;14.48;44.18;98089.59;6305510;22;20416;-74
2022/04/03 07:21:05;;;;;;;0.00;0.00;;;;;;;14.61;43.87;98095.88;6305332;22;20003;-74
2022/04/03 07:23:31;;;;;;;0.00;0.00;;;;;;;14.72;42.55;98096.28;6305777;22;20010;-74
2022/04/03 07:25:56;;;;;;;0.20;0.20;;;;;;;14.81;42.06;98098.94;6305408;22;20072;-76
2022/04/03 07:28:22;;;;;;;0.20;0.20;;;;;;;14.85;42.51;98097.16;6305375;22;20080;-76
2022/04/03 07:30:48;;;;;;;0.00;0.00;;;;;;;15.01;42.77;98103.53;6305067;22;20003;-75
2022/04/03 07:33:13;;;;;;;0.00;0.00;;;;;;;15.05;40.37;98107.16;6305756;22;20010;-75
2022/04/03 07:35:39;;;;;;;0.15;0.15;;;;;;;15.07;39.84;98112.19;6305671;22;20066;-75
2022/04/03 07:38:05;;;;;;;0.15;0.15;;;;;;;15.12;41.20;98119.28;6305459;22;20006;-76
2022/04/03 07:40:31;;;;;;;0.30;0.30;;;;;;;15.05;40.70;98101.00;6305527;22;19999;-75
2022/04/03 07:42:56;;;;;;;0.10;0.10;;;;;;;15.10;41.07;98118.81;6305309;22;20014;-75
2022/04/03 07:45:23;;;;;;;0.10;0.10;;;;;;;15.15;41.00;98110.56;6305418;22;20003;-75
2022/04/03 07:47:50;;;;;;;0.00;0.00;;;;;;;15.32;41.12;98123.13;6305246;22;20007;-75
2022/04/03 07:50:20;;;;;;;0.00;0.00;;;;;;;15.47;41.58;98124.41;6305537;22;20030;-75
2022/04/03 07:52:47;;;;;;;0.00;0.00;;;;;;;15.62;40.56;98125.69;6305391;22;20031;-75
2022/04/03 07:55:13;;;;;;;0.10;0.10;;;;;;;15.55;39.77;98144.28;6305373;22;20003;-75
2022/04/03 07:57:40;;;;;;;0.00;0.00;;;;;;;15.60;39.65;98134.09;6305331;22;20086;-75
2022/04/03 08:00:08;;;;;;;0.00;0.00;;;;;;;15.65;40.28;98128.50;6305001;22;20000;-75
2022/04/03 08:02:34;;;;;;;0.10;0.10;;;;;;;15.70;38.86;98130.22;6277940;22;20386;-75
2022/04/03 08:05:00;;;;;;;0.00;0.00;;;;;;;15.71;39.27;98126.41;6305084;22;20081;-75
2022/04/03 08:07:41;;;;;;;0.10;0.10;;;;;;;15.76;39.51;98130.78;6305192;22;20062;-75
2022/04/03 08:10:08;;;;;;;0.13;0.13;;;;;;;15.82;39.62;98137.56;6304671;22;20487;-75
2022/04/03 08:12:38;;;;;;;0.10;0.10;;;;;;;15.90;40.29;98136.69;6304647;22;20517;-75
2022/04/03 08:15:05;;;;;;;0.00;0.00;;;;;;;15.93;40.34;98146.00;6304991;22;20003;-75
2022/04/03 08:17:31;;;;;;;0.10;0.10;;;;;;;15.96;38.17;98145.34;6304889;22;20003;-75
2022/04/03 08:19:57;;;;;;;0.00;0.00;;;;;;;15.98;39.54;98135.03;6304852;22;20066;-75
2022/04/03 08:22:22;;;;;;;0.00;0.00;;;;;;;16.00;40.67;98143.56;6305241;22;20006;-75
2022/04/03 08:24:49;;;;;;;0.00;0.00;;;;;;;15.95;40.29;98138.38;6304401;22;20364;-75
2022/04/03 08:27:17;;;;;;;0.00;0.00;;;;;;;16.00;40.91;98157.84;6305104;22;20037;-75
2022/04/03 08:29:43;;;;;;;0.10;0.10;;;;;;;16.03;40.58;98152.88;6304703;22;20084;-75
2022/04/03 08:32:09;;;;;;;0.03;0.03;;;;;;;16.02;40.36;98154.81;6304828;22;20435;-76
2022/04/03 08:34:35;;;;;;;0.00;0.00;;;;;;;16.02;39.82;98143.25;6304963;22;20024;-76
2022/04/03 08:37:01;;;;;;;0.20;0.20;;;;;;;16.05;40.22;98146.06;6304677;22;20030;-76
2022/04/03 08:39:26;;;;;;;0.10;0.10;;;;;;;16.05;39.46;98148.75;6304856;22;20003;-76
2022/04/03 08:41:53;;;;;;;0.00;0.00;;;;;;;16.07;39.90;98138.41;6304775;22;20112;-76
2022/04/03 08:44:19;;;;;;;0.00;0.00;;;;;;;16.13;38.78;98141.69;6305374;22;20005;-76
2022/04/03 08:46:48;;;;;;;0.10;0.10;;;;;;;16.06;37.74;98142.22;6304956;22;20023;-76
2022/04/03 08:49:16;;;;;;;0.10;0.10;;;;;;;15.98;38.46;98137.72;6304520;22;20013;-76
2022/04/03 08:51:43;;;;;;;0.00;0.00;;;;;;;15.99;39.30;98133.88;6304809;22;20384;-76
2022/04/03 08:54:10;;;;;;;0.00;0.00;;;;;;;15.99;39.58;98148.19;6277324;22;20007;-75
2022/04/03 08:56:35;;;;;;;0.30;0.30;;;;;;;15.95;39.28;98149.16;6304525;22;20352;-75
2022/04/03 08:59:02;;;;;;;0.00;0.00;;;;;;;15.93;38.53;98154.91;6304443;22;19999;-75
2022/04/03 09:01:28;;;;;;;0.10;0.10;;;;;;;15.87;38.72;98161.63;6304689;22;20007;-75
2022/04/03 09:03:54;;;;;;;0.00;0.00;;;;;;;15.78;38.39;98159.00;6304520;22;20417;-75
2022/04/03 09:06:21;;;;;;;0.10;0.10;;;;;;;15.72;38.26;98162.22;6304805;22;20082;-75
2022/04/03 09:08:48;;;;;;;0.00;0.00;;;;;;;15.63;38.70;98165.78;6304813;22;20003;-74
2022/04/03 09:11:14;;;;;;;0.10;0.10;;;;;;;15.60;39.26;98165.66;6304434;22;20433;-75
2022/04/03 09:13:41;;;;;;;0.00;0.00;;;;;;;15.58;38.23;98168.69;6304672;22;20003;-75
2022/04/03 09:16:07;;;;;;;0.10;0.10;;;;;;;15.51;37.86;98177.31;6304444;22;20008;-75
2022/04/03 09:18:53;;;;;;;0.00;0.00;;;;;;;15.51;38.28;98171.91;6304635;22;20027;-75
2022/04/03 09:21:26;;;;;;;0.00;0.00;;;;;;;15.49;38.64;98170.66;6304560;22;20060;-75
2022/04/03 09:24:08;;;;;;;0.10;0.10;;;;;;;15.55;38.86;98171.25;6304684;22;20086;-75
2022/04/03 09:26:35;;;;;;;0.20;0.20;;;;;;;15.53;37.87;98164.28;6304599;22;20008;-75
2022/04/03 09:29:08;;;;;;;0.10;0.10;;;;;;;15.66;36.37;98161.63;6304434;22;20068;-75
2022/04/03 09:31:33;;;;;;;0.10;0.10;;;;;;;15.75;36.10;98165.03;6304214;22;20062;-75
2022/04/03 09:34:04;;;;;;;0.10;0.10;;;;;;;15.83;35.23;98174.19;6304365;22;20045;-75
2022/04/03 09:36:33;;;;;;;0.00;0.00;;;;;;;15.87;35.29;98172.41;6304777;22;20034;-75
2022/04/03 09:39:06;;;;;;;0.10;0.10;;;;;;;15.95;34.37;98182.34;6303924;22;20003;-75
2022/04/03 09:41:33;;;;;;;0.47;0.47;;;;;;;15.88;33.70;98173.19;6304263;22;20083;-75
2022/04/03 09:43:59;;;;;;;0.00;0.00;;;;;;;15.86;34.52;98178.16;6304402;22;20500;-75
2022/04/03 09:46:29;;;;;;;0.00;0.00;;;;;;;15.80;35.04;98181.00;6304565;22;20071;-75
2022/04/03 09:48:55;;;;;;;0.10;0.10;;;;;;;15.86;34.76;98186.22;6304380;22;20003;-75
2022/04/03 09:51:22;;;;;;;2.63;0.57;;;;;;;15.78;34.84;98182.44;6304645;22;20007;-75
2022/04/03 09:53:52;;;;;;;0.03;0.03;;;;;;;15.84;34.66;98184.66;6304542;22;20008;-75
2022/04/03 09:56:20;;;;;;;0.00;0.00;;;;;;;15.88;34.85;98192.88;6304260;22;20007;-75
2022/04/03 09:58:49;;;;;;;0.00;0.00;;;;;;;15.89;33.00;98186.34;6304446;22;20052;-75
2022/04/03 10:01:21;;;;;;;;;;;;;;;15.94;32.89;98186.16;6304639;22;20078;-75
2022/04/03 10:03:47;;;;;;;0.00;0.00;;;;;;;15.96;33.92;98191.19;6306316;22;19902;-75
2022/04/03 10:06:13;;;;;;;0.00;0.00;;;;;;;15.99;34.16;98196.72;6278813;22;20003;-76
2022/04/03 10:08:39;;;;;;;0.00;0.00;;;;;;;15.98;34.94;98191.66;6279016;22;20010;-76
2022/04/03 10:11:05;;;;;;;0.10;0.10;;;;;;;16.06;33.98;98185.38;6306153;22;20004;-74
2022/04/03 10:13:31;;;;;;;0.30;0.30;;;;;;;16.09;35.01;98178.53;6278699;22;20442;-76
2022/04/03 10:15:56;;;;;;;0.00;0.00;;;;;;;16.14;34.87;98183.72;6305922;22;20078;-75
2022/04/03 10:18:22;;;;;;;0.08;0.08;;;;;;;16.19;35.19;98169.25;6306411;22;20380;-75
2022/04/03 10:20:48;;;;;;;0.00;0.00;;;;;;;16.25;34.26;98176.75;6306257;22;20038;-76
2022/04/03 10:23:14;;;;;;;0.08;0.08;;;;;;;16.29;33.99;98185.75;6306083;22;20006;-76
2022/04/03 10:25:44;;;;;;;0.00;0.00;;;;;;;16.32;33.52;98189.72;6306150;22;20455;-76
2022/04/03 10:28:11;;;;;;;0.08;0.08;;;;;;;16.32;32.62;98195.88;6305871;22;20006;-76
2022/04/03 10:30:43;;;;;;;0.00;0.00;;;;;;;16.37;32.55;98192.19;6306229;22;20088;-76
2022/04/03 10:33:20;;;;;;;0.52;0.52;;;;;;;16.32;33.13;98195.88;6306001;22;19999;-74
2022/04/03 10:36:12;;;;;;;0.00;0.00;;;;;;;16.39;33.63;98195.31;6306172;22;19999;-76
2022/04/03 10:39:03;;;;;;;0.10;0.10;;;;;;;16.43;33.32;98201.66;6306013;22;20014;-76
2022/04/03 10:41:35;;;;;;;0.05;0.05;;;;;;;16.54;33.27;98206.59;6306155;22;20432;-76
2022/04/03 10:44:11;;;;;;;0.00;0.00;;;;;;;16.54;32.90;98206.59;6305520;22;20007;-76
2022/04/03 10:47:01;;;;;;;0.20;0.20;;;;;;;16.53;33.70;98200.41;6306166;22;20026;-75
2022/04/03 10:49:59;;;;;;;0.15;0.15;;;;;;;16.60;33.54;98194.44;6306354;22;20009;-75
2022/04/03 10:52:38;;;;;;;0.10;0.10;;;;;;;16.64;33.96;98187.25;6305898;22;20003;-76
2022/04/03 10:55:15;;;;;;;0.00;0.00;;;;;;;16.68;33.38;98190.84;6305707;22;20075;-75
2022/04/03 10:57:40;;;;;;;0.10;0.10;;;;;;;16.71;33.43;98187.50;6305874;22;20066;-76
2022/04/03 11:00:12;;;;;;;0.00;0.00;;;;;;;16.76;34.79;98183.75;6305534;22;19999;-76
2022/04/03 11:02:44;;;;;;;0.00;0.00;;;;;;;16.79;34.22;98189.28;6278568;22;20060;-76
2022/04/03 11:05:21;;;;;;;0.10;0.10;;;;;;;16.88;34.11;98196.47;6305258;22;19999;-76
2022/04/03 11:07:51;;;;;;;0.10;0.10;;;;;;;16.86;32.94;98194.13;6305816;22;20003;-76
2022/04/03 11:10:56;;;;;;;0.10;0.10;;;;;;;16.94;32.52;98190.56;6278160;22;20245;-76
2022/04/03 11:13:28;;;;;;;0.05;0.05;;;;;;;17.00;31.63;98193.78;6304827;22;20002;-76
2022/04/03 11:15:54;;;;;;;0.00;0.00;;;;;;;17.06;29.77;98187.03;6305607;22;20006;-76
2022/04/03 11:18:33;;;;;;;0.00;0.00;;;;;;;17.06;30.00;98194.34;6278149;22;20011;-76
2022/04/03 11:21:18;;;;;;;0.00;0.00;;;;;;;17.13;30.31;98199.97;6305326;22;20360;-76
2022/04/03 11:23:54;;;;;;;0.10;0.10;;;;;;;17.16;29.38;98196.56;6305454;22;20006;-76
2022/04/03 11:26:22;;;;;;;0.00;0.00;;;;;;;17.23;29.58;98204.13;6305442;22;20015;-76
2022/04/03 11:28:47;;;;;;;0.00;0.00;;;;;;;17.26;29.95;98195.34;6305703;22;20003;-76
2022/04/03 11:31:13;;;;;;;0.00;0.00;;;;;;;17.31;29.47;98203.22;6304996;22;20129;-76
2022/04/03 11:33:40;;;;;;;0.10;0.10;;;;;;;17.29;29.82;98200.06;6305600;22;19999;-76